createdAt,value
2019-06-26T00:01:30.913Z,16.48
2019-06-26T00:03:58.946Z,17.75
2019-06-26T00:06:28.990Z,16.80
2019-06-26T00:08:55.606Z,18.25
2019-06-26T00:11:24.996Z,18.80
2019-06-26T00:13:52.956Z,20.05
2019-06-26T00:16:21.041Z,17.45
2019-06-26T00:18:47.589Z,22.37
2019-06-26T00:21:15.966Z,18.32
2019-06-26T00:23:44.035Z,19.55
2019-06-26T00:26:10.695Z,16.00
2019-06-26T00:28:38.944Z,16.17
2019-06-26T00:31:05.652Z,15.43
2019-06-26T00:33:33.882Z,18.17
2019-06-26T00:36:02.234Z,18.37
2019-06-26T00:38:31.042Z,17.65
2019-06-26T00:40:57.577Z,16.52
2019-06-26T00:43:38.517Z,18.45
2019-06-26T00:45:57.110Z,17.87
2019-06-26T00:48:23.815Z,16.40
2019-06-26T00:50:51.978Z,17.52
2019-06-26T00:53:18.532Z,17.05
2019-06-26T00:55:46.998Z,15.13
2019-06-26T00:58:15.077Z,17.75
2019-06-26T01:00:46.941Z,19.75
2019-06-26T01:03:13.620Z,17.50
2019-06-26T01:05:45.052Z,19.50
2019-06-26T01:08:14.932Z,18.20
2019-06-26T01:10:44.046Z,18.00
2019-06-26T01:13:12.006Z,18.90
2019-06-26T01:15:38.988Z,17.60
2019-06-26T01:18:06.922Z,17.30
2019-06-26T01:20:33.590Z,18.23
2019-06-26T01:23:00.217Z,18.45
2019-06-26T01:25:26.739Z,15.88
2019-06-26T01:27:54.995Z,17.30
2019-06-26T01:30:22.531Z,16.30
2019-06-26T01:32:51.065Z,15.68
2019-06-26T01:35:17.790Z,18.62
2019-06-26T01:37:48.009Z,17.92
2019-06-26T01:40:17.001Z,18.90
2019-06-26T01:42:43.681Z,18.42
2019-06-26T01:45:12.991Z,18.65
2019-06-26T01:47:39.635Z,16.57
2019-06-26T01:50:10.073Z,17.65
2019-06-26T01:52:36.890Z,19.10
2019-06-26T01:55:06.962Z,17.98
2019-06-26T01:57:33.650Z,16.15
2019-06-26T02:00:00.153Z,18.27
2019-06-26T02:02:27.996Z,17.70
2019-06-26T02:04:54.707Z,18.60
2019-06-26T02:07:23.031Z,21.50
2019-06-26T02:09:53.025Z,23.32
2019-06-26T02:12:19.708Z,19.42
2019-06-26T02:14:48.065Z,19.87
2019-06-26T02:17:15.752Z,23.20
2019-06-26T02:19:44.037Z,19.65
2019-06-26T02:22:10.783Z,20.72
2019-06-26T02:24:37.410Z,19.70
2019-06-26T02:27:03.939Z,23.52
2019-06-26T02:29:32.085Z,21.65
2019-06-26T02:31:59.999Z,20.08
2019-06-26T02:34:28.025Z,20.48
2019-06-26T02:36:56.086Z,20.48
2019-06-26T02:39:26.004Z,23.80
2019-06-26T02:41:52.691Z,21.87
2019-06-26T02:44:21.005Z,22.52
2019-06-26T02:46:47.609Z,21.77
2019-06-26T02:49:17.055Z,19.48
2019-06-26T02:51:45.001Z,20.35
2019-06-26T02:54:11.713Z,21.42
2019-06-26T02:56:40.029Z,20.48
2019-06-26T02:59:06.702Z,22.05
2019-06-26T03:01:34.956Z,26.87
2019-06-26T03:04:01.462Z,22.30
2019-06-26T03:06:30.079Z,21.73
2019-06-26T03:08:58.196Z,23.22
2019-06-26T03:11:26.929Z,22.55
2019-06-26T03:13:53.638Z,22.73
2019-06-26T03:16:23.076Z,22.40
2019-06-26T03:18:49.756Z,22.30
2019-06-26T03:21:19.128Z,21.70
2019-06-26T03:23:46.960Z,22.95
2019-06-26T03:26:13.753Z,22.75
2019-06-26T03:28:42.132Z,27.32
2019-06-26T03:31:10.099Z,23.75
2019-06-26T03:33:38.026Z,23.18
2019-06-26T03:36:06.039Z,24.00
2019-06-26T03:38:34.037Z,25.17
2019-06-26T03:41:02.164Z,23.38
2019-06-26T03:43:35.334Z,22.70
2019-06-26T03:46:01.677Z,21.30
2019-06-26T03:48:30.044Z,22.37
2019-06-26T03:50:58.057Z,21.25
2019-06-26T03:53:26.101Z,19.55
2019-06-26T03:55:52.713Z,20.97
2019-06-26T03:58:19.301Z,21.68
2019-06-26T04:00:48.091Z,18.12
2019-06-26T04:03:15.295Z,17.42
2019-06-26T04:05:44.046Z,18.62
2019-06-26T04:08:10.692Z,18.85
2019-06-26T04:10:43.373Z,20.00
2019-06-26T04:13:11.061Z,20.82
2019-06-26T04:15:42.370Z,20.77
2019-06-26T04:18:10.083Z,23.77
2019-06-26T04:20:38.036Z,22.40
2019-06-26T04:23:04.623Z,18.67
2019-06-26T04:25:33.051Z,22.48
2019-06-26T04:28:01.128Z,18.00
2019-06-26T04:30:28.127Z,18.02
2019-06-26T04:32:57.026Z,21.60
2019-06-26T04:35:23.607Z,19.48
2019-06-26T04:37:52.092Z,25.45
2019-06-26T04:40:20.482Z,20.55
2019-06-26T04:42:51.107Z,20.75
2019-06-26T04:45:17.681Z,25.32
2019-06-26T04:47:45.770Z,23.07
2019-06-26T04:50:14.672Z,23.40
2019-06-26T04:52:43.016Z,25.82
2019-06-26T04:55:11.156Z,23.47
2019-06-26T04:57:37.842Z,22.58
2019-06-26T05:00:06.050Z,23.12
2019-06-26T05:02:36.069Z,21.87
2019-06-26T05:05:05.148Z,22.65
2019-06-26T05:07:33.152Z,25.60
2019-06-26T05:10:00.015Z,20.52
2019-06-26T05:12:30.082Z,22.22
2019-06-26T05:14:56.675Z,21.93
2019-06-26T05:17:23.852Z,21.30
2019-06-26T05:19:52.166Z,20.17
2019-06-26T05:22:18.791Z,25.35
2019-06-26T05:24:46.668Z,24.05
2019-06-26T05:27:15.266Z,22.55
2019-06-26T05:29:43.177Z,19.87
2019-06-26T05:32:11.083Z,21.37
2019-06-26T05:34:37.787Z,19.17
2019-06-26T05:37:04.590Z,20.20
2019-06-26T05:39:33.031Z,22.22
2019-06-26T05:42:01.265Z,20.30
2019-06-26T05:44:30.144Z,21.82
2019-06-26T05:46:57.695Z,17.50
2019-06-26T05:49:26.131Z,20.50
2019-06-26T05:51:54.046Z,17.65
2019-06-26T05:54:22.122Z,17.92
2019-06-26T05:56:50.071Z,20.40
2019-06-26T05:59:16.589Z,18.57
2019-06-26T06:01:45.067Z,16.48
2019-06-26T06:04:11.647Z,15.70
2019-06-26T06:06:41.997Z,18.40
2019-06-26T06:09:07.047Z,24.60
2019-06-26T06:11:35.132Z,20.23
2019-06-26T06:14:03.210Z,17.75
2019-06-26T06:16:46.340Z,12.28
2019-06-26T06:19:01.124Z,18.20
2019-06-26T06:21:27.626Z,13.80
2019-06-26T06:23:56.192Z,15.95
2019-06-26T06:26:22.822Z,15.50
2019-06-26T06:28:51.100Z,11.30
2019-06-26T06:31:17.684Z,16.48
2019-06-26T06:33:46.222Z,19.73
2019-06-26T06:36:12.783Z,16.70
2019-06-26T06:38:41.107Z,11.20
2019-06-26T06:41:09.240Z,13.30
2019-06-26T06:43:37.051Z,15.28
2019-06-26T06:46:07.217Z,9.55
2019-06-26T06:48:36.128Z,9.05
2019-06-26T06:51:05.120Z,10.00
2019-06-26T06:53:31.866Z,9.43
2019-06-26T06:56:00.115Z,12.10
2019-06-26T06:58:30.069Z,12.90
2019-06-26T07:00:58.169Z,10.48
2019-06-26T07:03:24.829Z,9.00
2019-06-26T07:05:53.102Z,8.83
2019-06-26T07:08:19.673Z,10.10
2019-06-26T07:10:48.085Z,8.90
2019-06-26T07:13:16.630Z,10.98
2019-06-26T07:15:45.169Z,13.45
2019-06-26T07:18:13.130Z,11.22
2019-06-26T07:20:44.490Z,10.18
2019-06-26T07:23:11.132Z,14.18
2019-06-26T07:25:39.121Z,9.20
2019-06-26T07:28:07.123Z,11.03
2019-06-26T07:30:33.613Z,9.98
2019-06-26T07:33:02.193Z,9.85
2019-06-26T07:35:30.027Z,9.68
2019-06-26T07:38:00.197Z,10.48
2019-06-26T07:40:26.966Z,8.55
2019-06-26T07:42:57.315Z,12.03
2019-06-26T07:45:26.228Z,10.43
2019-06-26T07:47:54.761Z,11.20
2019-06-26T07:50:23.173Z,9.38
2019-06-26T07:52:49.878Z,9.18
2019-06-26T07:55:18.302Z,9.38
2019-06-26T07:57:46.354Z,12.63
2019-06-26T08:00:16.180Z,10.95
2019-06-26T08:02:44.184Z,10.72
2019-06-26T08:05:11.290Z,8.85
2019-06-26T08:07:41.123Z,9.58
2019-06-26T08:10:08.366Z,11.63
2019-06-26T08:12:37.231Z,13.83
2019-06-26T08:15:05.915Z,9.30
2019-06-26T08:17:36.157Z,11.20
2019-06-26T08:20:03.538Z,10.18
2019-06-26T08:22:32.242Z,9.75
2019-06-26T08:24:58.831Z,10.45
2019-06-26T08:27:27.253Z,10.15
2019-06-26T08:29:54.159Z,8.40
2019-06-26T08:32:25.996Z,9.28
2019-06-26T08:34:52.635Z,10.95
2019-06-26T08:37:22.294Z,8.53
2019-06-26T08:39:48.954Z,9.08
2019-06-26T08:42:17.235Z,9.53
2019-06-26T08:44:45.248Z,10.08
2019-06-26T08:47:15.193Z,10.10
2019-06-26T08:49:41.639Z,9.53
2019-06-26T08:52:10.267Z,10.48
2019-06-26T08:54:36.991Z,9.10
2019-06-26T08:57:05.238Z,9.80
2019-06-26T08:59:33.300Z,8.93
2019-06-26T09:02:01.177Z,8.00
2019-06-26T09:04:29.240Z,8.50
2019-06-26T09:07:00.256Z,10.03
2019-06-26T09:09:26.858Z,9.30
2019-06-26T09:11:55.215Z,8.93
2019-06-26T09:14:21.750Z,7.20
2019-06-26T09:16:52.261Z,8.28
2019-06-26T09:19:19.072Z,8.15
2019-06-26T09:21:47.276Z,8.75
2019-06-26T09:24:13.816Z,8.55
2019-06-26T09:26:42.298Z,9.48
2019-06-26T09:29:10.267Z,8.48
2019-06-26T09:31:39.136Z,8.13
2019-06-26T09:34:07.464Z,14.68
2019-06-26T09:36:35.298Z,9.33
2019-06-26T09:39:03.242Z,8.40
2019-06-26T09:41:32.195Z,9.50
2019-06-26T09:44:00.390Z,9.20
2019-06-26T09:46:28.220Z,8.60
2019-06-26T09:48:56.282Z,9.93
2019-06-26T09:51:25.760Z,8.43
2019-06-26T09:53:54.236Z,11.03
2019-06-26T09:56:22.143Z,9.80
2019-06-26T09:58:50.191Z,9.03
2019-06-26T10:01:18.259Z,7.33
2019-06-26T10:03:45.390Z,9.98
2019-06-26T10:06:15.297Z,9.58
2019-06-26T10:08:43.305Z,9.30
2019-06-26T10:11:11.236Z,10.10
2019-06-26T10:13:37.937Z,8.18
2019-06-26T10:16:06.295Z,14.43
2019-06-26T10:18:33.083Z,8.18
2019-06-26T10:21:03.294Z,8.23
2019-06-26T10:23:32.249Z,7.87
2019-06-26T10:25:58.765Z,7.22
2019-06-26T10:28:27.243Z,8.95
2019-06-26T10:30:55.317Z,7.67
2019-06-26T10:33:21.849Z,8.23
2019-06-26T10:35:50.341Z,10.70
2019-06-26T10:38:17.203Z,7.95
2019-06-26T10:40:43.771Z,7.75
2019-06-26T10:43:10.652Z,8.10
2019-06-26T10:45:39.356Z,8.23
2019-06-26T10:48:08.337Z,9.58
2019-06-26T10:50:47.537Z,8.60
2019-06-26T10:53:07.234Z,8.38
2019-06-26T10:55:35.335Z,8.13
2019-06-26T10:58:02.013Z,7.12
2019-06-26T11:00:31.263Z,11.15
2019-06-26T11:02:57.940Z,8.08
2019-06-26T11:05:27.292Z,8.85
2019-06-26T11:07:55.163Z,8.68
2019-06-26T11:10:25.255Z,8.38
2019-06-26T11:12:52.277Z,8.38
2019-06-26T11:15:21.245Z,8.20
2019-06-26T11:17:47.933Z,7.72
2019-06-26T11:20:19.226Z,10.13
2019-06-26T11:22:47.286Z,9.33
2019-06-26T11:25:17.644Z,8.68
2019-06-26T11:27:46.305Z,8.23
2019-06-26T11:30:15.364Z,11.05
2019-06-26T11:32:44.239Z,10.10
2019-06-26T11:35:11.344Z,7.80
2019-06-26T11:37:39.283Z,9.18
2019-06-26T11:40:06.957Z,8.28
2019-06-26T11:42:35.343Z,8.73
2019-06-26T11:45:04.683Z,10.78
2019-06-26T11:47:33.298Z,7.92
2019-06-26T11:50:00.600Z,9.63
2019-06-26T11:52:30.403Z,10.30
2019-06-26T11:55:03.100Z,9.70
2019-06-26T11:57:29.250Z,9.88
2019-06-26T11:59:55.813Z,9.83
2019-06-26T12:02:22.407Z,9.08
2019-06-26T12:04:49.116Z,8.25
2019-06-26T12:07:17.252Z,8.98
2019-06-26T12:09:45.365Z,9.75
2019-06-26T12:12:13.316Z,10.08
2019-06-26T12:14:40.024Z,11.18
2019-06-26T12:17:08.335Z,9.53
2019-06-26T12:19:34.995Z,8.83
2019-06-26T12:22:03.379Z,9.88
2019-06-26T12:24:31.316Z,9.30
2019-06-26T12:27:01.323Z,9.03
2019-06-26T12:29:27.934Z,9.73
2019-06-26T12:31:56.379Z,8.93
2019-06-26T12:34:22.889Z,11.15
2019-06-26T12:36:51.258Z,9.88
2019-06-26T12:39:18.340Z,9.30
2019-06-26T12:41:46.299Z,8.78
2019-06-26T12:44:12.847Z,8.70
2019-06-26T12:46:42.451Z,9.35
2019-06-26T12:49:11.308Z,8.20
2019-06-26T12:51:39.536Z,8.03
2019-06-26T12:54:08.497Z,9.95
2019-06-26T12:56:35.386Z,8.50
2019-06-26T12:59:03.286Z,8.10
2019-06-26T13:01:30.019Z,9.03
2019-06-26T13:03:59.331Z,8.38
2019-06-26T13:06:26.940Z,8.98
2019-06-26T13:08:55.279Z,9.43
2019-06-26T13:11:23.363Z,8.40
2019-06-26T13:14:02.089Z,8.25
2019-06-26T13:16:20.308Z,9.15
2019-06-26T13:18:48.401Z,9.15
2019-06-26T13:21:15.333Z,8.90
2019-06-26T13:23:46.316Z,8.35
2019-06-26T13:26:14.358Z,8.33
2019-06-26T13:28:42.306Z,8.90
2019-06-26T13:31:10.364Z,8.98
2019-06-26T13:33:37.055Z,8.95
2019-06-26T13:36:05.359Z,9.95
2019-06-26T13:38:31.920Z,12.15
2019-06-26T13:41:00.298Z,9.48
2019-06-26T13:43:27.121Z,10.43
2019-06-26T13:45:58.611Z,9.18
2019-06-26T13:48:24.928Z,10.20
2019-06-26T13:51:08.177Z,9.20
2019-06-26T13:53:21.935Z,8.58
2019-06-26T13:55:52.412Z,9.50
2019-06-26T13:58:20.379Z,8.80
2019-06-26T14:00:46.949Z,8.18
2019-06-26T14:03:15.395Z,10.08
2019-06-26T14:05:42.193Z,12.90
2019-06-26T14:08:10.394Z,16.70
2019-06-26T14:10:37.011Z,8.83
2019-06-26T14:13:05.420Z,11.80
2019-06-26T14:15:31.972Z,12.65
2019-06-26T14:18:00.328Z,13.30
2019-06-26T14:20:27.104Z,15.60
2019-06-26T14:22:55.359Z,9.65
2019-06-26T14:25:22.081Z,8.95
2019-06-26T14:27:52.468Z,8.73
2019-06-26T14:30:19.601Z,8.73
2019-06-26T14:32:47.467Z,10.65
2019-06-26T14:35:14.496Z,10.78
2019-06-26T14:37:41.115Z,9.75
2019-06-26T14:40:08.345Z,9.50
2019-06-26T14:42:36.342Z,9.48
2019-06-26T14:45:06.330Z,9.08
2019-06-26T14:47:35.628Z,9.18
2019-06-26T14:50:04.719Z,9.80
2019-06-26T14:52:35.225Z,9.75
2019-06-26T14:55:03.890Z,9.80
2019-06-26T14:57:34.417Z,8.95
2019-06-26T15:00:04.313Z,9.98
2019-06-26T15:02:32.392Z,10.23
2019-06-26T15:05:00.434Z,9.45
2019-06-26T15:07:28.419Z,10.40
2019-06-26T15:09:56.327Z,9.25
2019-06-26T15:12:24.371Z,11.12
2019-06-26T15:14:50.913Z,9.00
2019-06-26T15:17:19.658Z,9.25
2019-06-26T15:19:47.456Z,9.60
2019-06-26T15:22:15.445Z,11.08
2019-06-26T15:24:43.436Z,10.23
2019-06-26T15:27:13.412Z,9.88
2019-06-26T15:29:40.004Z,10.63
2019-06-26T15:32:08.422Z,10.10
2019-06-26T15:34:34.999Z,10.65
2019-06-26T15:37:03.336Z,9.58
2019-06-26T15:39:29.952Z,10.45
2019-06-26T15:41:56.680Z,15.08
2019-06-26T15:44:23.331Z,9.18
2019-06-26T15:46:51.330Z,9.45
2019-06-26T15:49:17.896Z,11.10
2019-06-26T15:51:47.395Z,8.70
2019-06-26T15:54:13.963Z,10.45
2019-06-26T15:56:44.351Z,10.13
2019-06-26T15:59:11.044Z,10.90
2019-06-26T16:01:39.494Z,10.80
2019-06-26T16:04:08.460Z,10.28
2019-06-26T16:06:36.635Z,9.63
2019-06-26T16:09:06.436Z,12.55
2019-06-26T16:11:33.246Z,9.13
2019-06-26T16:14:01.462Z,11.33
2019-06-26T16:16:28.416Z,8.68
2019-06-26T16:18:58.447Z,8.80
2019-06-26T16:21:26.437Z,9.73
2019-06-26T16:23:53.146Z,10.88
2019-06-26T16:26:23.470Z,8.93
2019-06-26T16:28:50.007Z,9.28
2019-06-26T16:31:18.614Z,14.73
2019-06-26T16:33:46.445Z,11.30
2019-06-26T16:36:12.989Z,9.50
2019-06-26T16:38:41.418Z,9.40
2019-06-26T16:41:08.020Z,9.63
2019-06-26T16:43:36.474Z,9.73
2019-06-26T16:46:04.531Z,9.48
2019-06-26T16:48:31.669Z,8.48
2019-06-26T16:51:01.430Z,8.58
2019-06-26T16:53:28.095Z,11.00
2019-06-26T16:55:58.468Z,9.68
2019-06-26T16:58:25.028Z,9.23
2019-06-26T17:00:53.449Z,8.93
2019-06-26T17:03:20.026Z,12.43
2019-06-26T17:05:49.404Z,11.10
2019-06-26T17:08:17.507Z,10.05
2019-06-26T17:10:44.072Z,9.38
2019-06-26T17:13:14.454Z,8.75
2019-06-26T17:15:41.335Z,10.30
2019-06-26T17:18:09.484Z,9.58
2019-06-26T17:20:36.134Z,13.20
2019-06-26T17:23:06.618Z,10.25
2019-06-26T17:25:33.605Z,9.38
2019-06-26T17:28:01.687Z,13.38
2019-06-26T17:30:29.422Z,13.22
2019-06-26T17:32:55.994Z,10.78
2019-06-26T17:35:24.537Z,17.52
2019-06-26T17:37:52.482Z,11.15
2019-06-26T17:40:21.413Z,15.35
2019-06-26T17:42:48.277Z,9.65
2019-06-26T17:45:17.395Z,10.85
2019-06-26T17:47:44.086Z,13.35
2019-06-26T17:50:12.447Z,9.60
2019-06-26T17:52:41.544Z,9.88
2019-06-26T17:55:10.428Z,11.80
2019-06-26T17:57:39.412Z,14.40
2019-06-26T18:00:08.183Z,10.03
2019-06-26T18:02:37.042Z,13.35
2019-06-26T18:05:08.573Z,13.88
2019-06-26T18:07:35.325Z,11.25
2019-06-26T18:10:05.151Z,11.60
2019-06-26T18:12:33.490Z,10.63
2019-06-26T18:15:00.166Z,11.35
2019-06-26T18:17:28.635Z,13.93
2019-06-26T18:19:55.288Z,12.15
2019-06-26T18:22:22.011Z,12.95
2019-06-26T18:24:48.650Z,16.57
2019-06-26T18:27:16.508Z,10.55
2019-06-26T18:29:43.082Z,14.60
2019-06-26T18:32:11.518Z,10.48
2019-06-26T18:34:39.799Z,13.45
2019-06-26T18:37:07.588Z,12.63
2019-06-26T18:39:36.476Z,21.07
2019-06-26T18:42:03.097Z,9.75
2019-06-26T18:44:31.549Z,12.98
2019-06-26T18:46:59.507Z,9.80
2019-06-26T18:49:27.530Z,10.38
2019-06-26T18:51:56.214Z,17.05
2019-06-26T18:54:24.455Z,13.25
2019-06-26T18:56:52.505Z,10.13
2019-06-26T18:59:20.500Z,13.18
2019-06-26T19:01:47.075Z,16.57
2019-06-26T19:04:15.525Z,8.68
2019-06-26T19:06:43.725Z,16.45
2019-06-26T19:09:10.569Z,14.75
2019-06-26T19:11:38.607Z,10.95
2019-06-26T19:14:05.285Z,11.38
2019-06-26T19:16:36.253Z,12.05
2019-06-26T19:19:03.527Z,9.60
2019-06-26T19:21:30.217Z,13.78
2019-06-26T19:24:09.709Z,11.20
2019-06-26T19:26:26.069Z,15.00
2019-06-26T19:28:54.544Z,14.68
2019-06-26T19:31:22.462Z,9.10
2019-06-26T19:33:52.574Z,13.43
2019-06-26T19:36:19.248Z,14.38
2019-06-26T19:38:47.587Z,14.47
2019-06-26T19:41:14.173Z,11.05
2019-06-26T19:43:42.490Z,15.68
2019-06-26T19:46:09.167Z,12.10
2019-06-26T19:48:37.540Z,15.32
2019-06-26T19:51:05.202Z,13.88
2019-06-26T19:53:33.528Z,11.30
2019-06-26T19:56:00.254Z,15.78
2019-06-26T19:58:28.580Z,16.85
2019-06-26T20:00:56.651Z,14.70
2019-06-26T20:03:23.342Z,18.40
2019-06-26T20:05:53.613Z,10.63
2019-06-26T20:08:20.373Z,13.93
2019-06-26T20:10:48.528Z,13.35
2019-06-26T20:13:15.163Z,13.93
2019-06-26T20:15:41.950Z,14.85
2019-06-26T20:18:08.561Z,10.38
2019-06-26T20:20:36.581Z,11.22
2019-06-26T20:23:04.571Z,20.65
2019-06-26T20:25:31.155Z,9.78
2019-06-26T20:27:59.649Z,21.48
2019-06-26T20:30:31.539Z,9.63
2019-06-26T20:32:59.546Z,11.20
2019-06-26T20:35:27.746Z,7.97
2019-06-26T20:37:56.613Z,16.93
2019-06-26T20:40:23.330Z,11.15
2019-06-26T20:42:53.575Z,17.67
2019-06-26T20:45:21.615Z,15.05
2019-06-26T20:47:49.568Z,12.18
2019-06-26T20:50:17.043Z,16.97
2019-06-26T20:52:45.633Z,13.93
2019-06-26T20:55:12.541Z,23.75
2019-06-26T20:57:40.553Z,20.85
2019-06-26T21:00:08.738Z,19.52
2019-06-26T21:02:37.571Z,14.20
2019-06-26T21:05:05.500Z,15.45
2019-06-26T21:07:32.338Z,16.60
2019-06-26T21:10:00.580Z,14.43
2019-06-26T21:12:28.591Z,15.98
2019-06-26T21:14:56.517Z,12.45
2019-06-26T21:17:26.552Z,12.73
2019-06-26T21:19:53.208Z,11.90
2019-06-26T21:22:21.677Z,11.53
2019-06-26T21:24:48.233Z,12.25
2019-06-26T21:27:17.632Z,12.55
2019-06-26T21:29:44.288Z,13.90
2019-06-26T21:32:12.581Z,12.43
2019-06-26T21:34:39.386Z,13.60
2019-06-26T21:37:07.776Z,13.60
2019-06-26T21:39:34.293Z,12.20
2019-06-26T21:42:02.670Z,12.75
2019-06-26T21:44:30.649Z,16.80
2019-06-26T21:46:57.221Z,12.45
2019-06-26T21:49:25.561Z,21.50
2019-06-26T21:51:54.240Z,17.15
2019-06-26T21:54:22.589Z,17.10
2019-06-26T21:57:09.715Z,11.97
2019-06-26T21:59:56.535Z,12.20
2019-06-26T22:02:41.859Z,13.65
2019-06-26T22:05:14.516Z,12.93
2019-06-26T22:07:45.524Z,10.68
2019-06-26T22:10:17.579Z,11.30
2019-06-26T22:12:44.454Z,13.10
2019-06-26T22:15:14.497Z,12.68
2019-06-26T22:17:44.532Z,11.22
2019-06-26T22:20:14.750Z,11.93
2019-06-26T22:22:43.586Z,12.78
2019-06-26T22:25:11.189Z,11.12
2019-06-26T22:27:39.730Z,11.68
2019-06-26T22:30:09.635Z,11.15
2019-06-26T22:32:38.587Z,11.97
2019-06-26T22:35:06.645Z,17.57
2019-06-26T22:37:34.636Z,11.05
2019-06-26T22:40:03.850Z,11.55
2019-06-26T22:42:32.622Z,11.55
2019-06-26T22:44:59.334Z,12.10
2019-06-26T22:47:29.702Z,12.20
2019-06-26T22:49:56.349Z,13.43
2019-06-26T22:52:25.535Z,16.35
2019-06-26T22:54:53.723Z,17.00
2019-06-26T22:57:20.318Z,16.62
2019-06-26T22:59:48.584Z,15.03
2019-06-26T23:02:16.750Z,14.47
2019-06-26T23:04:44.576Z,17.12
2019-06-26T23:07:12.568Z,20.45
2019-06-26T23:09:40.565Z,20.88
2019-06-26T23:12:07.215Z,15.72
2019-06-26T23:14:35.775Z,18.42
2019-06-26T23:17:03.579Z,15.88
2019-06-26T23:19:30.135Z,16.52
2019-06-26T23:21:58.580Z,15.40
2019-06-26T23:24:25.340Z,16.77
2019-06-26T23:26:53.593Z,15.98
2019-06-26T23:29:20.059Z,14.93
2019-06-26T23:31:48.710Z,18.35
2019-06-26T23:34:16.593Z,16.12
2019-06-26T23:36:43.009Z,17.32
2019-06-26T23:39:12.601Z,18.30
2019-06-26T23:41:39.368Z,20.95
2019-06-26T23:44:07.633Z,19.48
2019-06-26T23:46:34.080Z,20.95
2019-06-26T23:49:03.644Z,18.25
2019-06-26T23:51:31.080Z,18.87
2019-06-26T23:54:00.620Z,20.80
2019-06-26T23:56:39.910Z,15.28
2019-06-26T23:58:57.550Z,17.48
